createdAt,value
2022-12-31T00:01:36.551Z,0
2022-12-31T00:06:42.593Z,0
2022-12-31T00:11:48.676Z,0
2022-12-31T00:16:54.788Z,0
2022-12-31T00:22:00.867Z,0
2022-12-31T00:27:06.947Z,0
2022-12-31T00:32:12.104Z,0
2022-12-31T00:37:17.168Z,0
2022-12-31T00:42:23.258Z,0
2022-12-31T00:47:29.342Z,0
2022-12-31T00:52:35.438Z,0
2022-12-31T00:57:41.523Z,0
2022-12-31T01:02:47.653Z,0
2022-12-31T01:07:53.736Z,0
2022-12-31T01:12:59.785Z,0
2022-12-31T01:18:05.935Z,0
2022-12-31T01:23:11.981Z,0
2022-12-31T01:28:17.105Z,0
2022-12-31T01:33:22.260Z,0
2022-12-31T01:38:28.287Z,0
2022-12-31T01:43:34.362Z,0
2022-12-31T01:53:46.554Z,0
2022-12-31T01:58:52.634Z,0
2022-12-31T02:03:58.761Z,0
2022-12-31T02:09:04.811Z,0
2022-12-31T02:14:10.954Z,0
2022-12-31T02:19:16.985Z,0
2022-12-31T02:24:23.099Z,0
2022-12-31T02:29:29.161Z,0
2022-12-31T02:34:35.265Z,0
2022-12-31T02:39:40.367Z,0
2022-12-31T02:44:46.480Z,0
2022-12-31T02:49:52.562Z,0
2022-12-31T02:54:57.654Z,0
2022-12-31T03:00:03.734Z,0
2022-12-31T03:05:09.838Z,0
2022-12-31T03:10:15.925Z,0
2022-12-31T03:15:22.002Z,0
2022-12-31T03:20:27.111Z,0
2022-12-31T03:25:32.216Z,0
2022-12-31T03:30:38.410Z,0
2022-12-31T03:35:43.431Z,0
2022-12-31T03:40:48.536Z,0
2022-12-31T03:45:54.633Z,0
2022-12-31T03:51:00.712Z,0
2022-12-31T03:56:06.872Z,0
2022-12-31T04:01:12.881Z,0
2022-12-31T04:06:19.037Z,0
2022-12-31T04:11:25.088Z,0
2022-12-31T04:16:31.168Z,0
2022-12-31T04:21:37.240Z,0
2022-12-31T04:26:43.348Z,0
2022-12-31T04:31:49.426Z,0
2022-12-31T04:36:55.510Z,0
2022-12-31T04:42:01.607Z,0
2022-12-31T04:52:12.788Z,0
2022-12-31T04:57:18.894Z,0
2022-12-31T05:02:24.963Z,0
2022-12-31T05:07:31.109Z,0
2022-12-31T05:12:37.182Z,0
2022-12-31T05:17:43.233Z,0
2022-12-31T05:22:49.326Z,0
2022-12-31T05:27:54.435Z,0
2022-12-31T05:32:59.549Z,0
2022-12-31T05:38:05.627Z,0
2022-12-31T05:43:11.722Z,0
2022-12-31T05:48:17.821Z,0
2022-12-31T05:53:22.956Z,0
2022-12-31T05:58:28.032Z,0
2022-12-31T06:03:34.122Z,0
2022-12-31T06:08:40.217Z,0
2022-12-31T06:13:46.300Z,0
2022-12-31T06:18:52.391Z,0
2022-12-31T06:23:58.492Z,0
2022-12-31T06:29:04.577Z,0
2022-12-31T06:34:10.651Z,0
2022-12-31T06:39:16.745Z,0
2022-12-31T06:44:22.831Z,0
2022-12-31T06:49:28.950Z,0
2022-12-31T06:54:35.022Z,0
2022-12-31T06:59:41.138Z,0
2022-12-31T07:04:46.288Z,0
2022-12-31T07:09:52.354Z,0
2022-12-31T07:14:58.399Z,4
2022-12-31T07:25:10.552Z,8
2022-12-31T07:30:16.647Z,8
2022-12-31T07:35:22.744Z,16
2022-12-31T07:40:28.835Z,24
2022-12-31T07:45:33.943Z,24
2022-12-31T07:50:39.077Z,28
2022-12-31T08:00:51.231Z,32
2022-12-31T08:05:56.369Z,56
2022-12-31T08:11:02.548Z,64
2022-12-31T08:16:08.634Z,56
2022-12-31T08:21:14.779Z,56
2022-12-31T08:26:20.817Z,52
2022-12-31T08:31:26.900Z,60
2022-12-31T08:36:32.989Z,60
2022-12-31T08:41:39.091Z,56
2022-12-31T08:46:45.224Z,108
2022-12-31T08:51:51.313Z,112
2022-12-31T08:56:57.402Z,92
2022-12-31T09:02:03.433Z,60
2022-12-31T09:07:09.591Z,96
2022-12-31T09:12:15.612Z,104
2022-12-31T09:17:20.738Z,96
2022-12-31T09:22:26.844Z,156
2022-12-31T09:27:32.895Z,204
2022-12-31T09:32:38.992Z,256
2022-12-31T09:37:45.100Z,248
2022-12-31T09:42:51.172Z,168
2022-12-31T09:47:57.270Z,208
2022-12-31T09:53:02.369Z,252
2022-12-31T09:58:08.604Z,296
2022-12-31T10:03:14.680Z,240
2022-12-31T10:08:19.782Z,220
2022-12-31T10:13:24.905Z,192
2022-12-31T10:18:30.982Z,208
2022-12-31T10:23:37.080Z,160
2022-12-31T10:28:43.206Z,140
2022-12-31T10:33:49.266Z,136
2022-12-31T10:38:55.408Z,132
2022-12-31T10:44:01.422Z,124
2022-12-31T10:49:07.567Z,88
2022-12-31T10:54:13.594Z,60
2022-12-31T11:04:25.899Z,84
2022-12-31T11:09:31.855Z,76
2022-12-31T11:14:37.968Z,76
2022-12-31T11:24:49.144Z,144
2022-12-31T11:29:54.266Z,132
2022-12-31T11:34:59.423Z,140
2022-12-31T11:40:05.562Z,192
2022-12-31T11:45:11.545Z,164
2022-12-31T11:50:17.630Z,180
2022-12-31T11:55:23.715Z,236
2022-12-31T12:00:29.823Z,208
2022-12-31T12:05:35.904Z,184
2022-12-31T12:10:41.989Z,212
2022-12-31T12:15:48.078Z,244
2022-12-31T12:20:54.153Z,112
2022-12-31T12:25:59.335Z,124
2022-12-31T12:31:04.386Z,132
2022-12-31T12:36:10.544Z,144
2022-12-31T12:41:16.625Z,124
2022-12-31T12:46:22.649Z,112
2022-12-31T12:51:28.840Z,100
2022-12-31T12:56:34.893Z,92
2022-12-31T13:01:40.935Z,136
2022-12-31T13:06:46.998Z,112
2022-12-31T13:11:53.132Z,104
2022-12-31T13:16:59.196Z,112
2022-12-31T13:22:05.261Z,64
2022-12-31T13:27:11.365Z,40
2022-12-31T13:32:17.449Z,52
2022-12-31T13:37:22.553Z,72
2022-12-31T13:42:28.740Z,72
2022-12-31T13:47:34.754Z,64
2022-12-31T13:57:46.952Z,28
2022-12-31T14:02:52.995Z,20
2022-12-31T14:07:59.097Z,12
2022-12-31T14:13:05.171Z,16
2022-12-31T14:18:10.318Z,20
2022-12-31T14:23:15.394Z,32
2022-12-31T14:28:21.479Z,36
2022-12-31T14:38:32.718Z,12
2022-12-31T14:43:37.817Z,8
2022-12-31T14:48:43.896Z,12
2022-12-31T14:53:49.967Z,8
2022-12-31T14:58:56.059Z,8
2022-12-31T15:04:02.349Z,4
2022-12-31T15:09:08.239Z,0
2022-12-31T15:14:14.354Z,0
2022-12-31T15:19:20.478Z,0
2022-12-31T15:24:26.512Z,0
2022-12-31T15:29:32.594Z,0
2022-12-31T15:34:38.732Z,0
2022-12-31T15:39:44.817Z,0
2022-12-31T15:44:50.845Z,0
2022-12-31T15:49:56.046Z,0
2022-12-31T15:55:02.066Z,0
2022-12-31T16:00:08.292Z,0
2022-12-31T16:05:14.241Z,0
2022-12-31T16:10:19.344Z,0
2022-12-31T16:15:24.505Z,0
2022-12-31T16:20:30.534Z,0
2022-12-31T16:25:35.705Z,0
2022-12-31T16:30:40.765Z,0
2022-12-31T16:35:45.875Z,0
2022-12-31T16:45:57.156Z,0
2022-12-31T16:51:03.148Z,0
2022-12-31T16:56:09.247Z,0
2022-12-31T17:01:15.341Z,0
2022-12-31T17:06:21.416Z,0
2022-12-31T17:11:27.528Z,0
2022-12-31T17:16:33.670Z,0
2022-12-31T17:21:39.783Z,0
2022-12-31T17:26:45.851Z,0
2022-12-31T17:31:51.876Z,0
2022-12-31T17:36:58.099Z,0
2022-12-31T17:42:04.034Z,0
2022-12-31T17:47:09.228Z,0
2022-12-31T17:52:15.373Z,0
2022-12-31T17:57:21.319Z,0
2022-12-31T18:02:27.412Z,0
2022-12-31T18:07:33.557Z,0
2022-12-31T18:12:39.702Z,0
2022-12-31T18:17:45.687Z,0
2022-12-31T18:22:51.836Z,0
2022-12-31T18:27:57.920Z,0
2022-12-31T18:33:03.052Z,0
2022-12-31T18:38:08.072Z,0
2022-12-31T18:43:14.163Z,0
2022-12-31T18:48:19.303Z,0
2022-12-31T18:53:24.451Z,0
2022-12-31T19:03:36.563Z,0
2022-12-31T19:08:42.671Z,0
2022-12-31T19:13:48.740Z,0
2022-12-31T19:18:54.824Z,0
2022-12-31T19:24:01.052Z,0
2022-12-31T19:29:07.000Z,0
2022-12-31T19:34:13.093Z,0
2022-12-31T19:39:19.226Z,0
2022-12-31T19:44:25.269Z,0
2022-12-31T19:49:31.381Z,0
2022-12-31T19:54:37.493Z,0
2022-12-31T19:59:42.608Z,0
2022-12-31T20:09:54.753Z,0
2022-12-31T20:14:59.939Z,0
2022-12-31T20:20:04.952Z,0
2022-12-31T20:25:11.260Z,0
2022-12-31T20:35:23.278Z,0
2022-12-31T20:40:29.445Z,0
2022-12-31T20:45:35.526Z,0
2022-12-31T20:50:41.480Z,0
2022-12-31T20:55:47.768Z,0
2022-12-31T21:00:53.771Z,0
2022-12-31T21:05:59.750Z,0
2022-12-31T21:11:05.855Z,0
2022-12-31T21:16:11.928Z,0
2022-12-31T21:21:18.023Z,0
2022-12-31T21:26:23.127Z,0
2022-12-31T21:31:29.308Z,0
2022-12-31T21:36:35.373Z,0
2022-12-31T21:41:41.380Z,0
2022-12-31T21:46:47.486Z,0
2022-12-31T21:51:53.595Z,0
2022-12-31T21:56:59.756Z,0
2022-12-31T22:02:05.774Z,0
2022-12-31T22:07:11.005Z,0
2022-12-31T22:12:16.131Z,0
2022-12-31T22:17:22.225Z,0
2022-12-31T22:22:28.144Z,0
2022-12-31T22:27:34.294Z,0
2022-12-31T22:32:40.320Z,0
2022-12-31T22:42:52.517Z,0
2022-12-31T22:47:58.594Z,0
2022-12-31T22:53:04.707Z,0
2022-12-31T22:58:10.832Z,0
2022-12-31T23:03:16.860Z,0
2022-12-31T23:08:22.948Z,0
2022-12-31T23:13:29.037Z,0
2022-12-31T23:18:34.234Z,0
2022-12-31T23:23:40.311Z,0
2022-12-31T23:28:46.490Z,0
2022-12-31T23:33:52.574Z,0
2022-12-31T23:38:58.491Z,0
2022-12-31T23:44:04.611Z,0
2022-12-31T23:49:10.854Z,0
2022-12-31T23:54:16.841Z,0
2022-12-31T23:59:21.966Z,0
